sensor_id;sensor_type;location;lat;lon;timestamp;pressure;altitude;pressure_sealevel;temperature;humidity
48680;BME280;34475;51.658;5.634;2022-07-03T00:00:00;101450;;;20.5;100.0
48680;BME280;34475;51.658;5.634;2022-07-03T00:01:00;101450;;;20.4;100.0
48680;BME280;34475;51.658;5.634;2022-07-03T00:02:00;101450;;;20.4;100.0
48680;BME280;34475;51.658;5.634;2022-07-03T00:03:00;101440;;;20.3;100.0
48680;BME280;34475;51.658;5.634;2022-07-03T00:04:00;101440;;;20.3;100.0
48680;BME280;34475;51.658;5.634;2022-07-03T00:05:00;101440;;;20.4;100.0
48680;BME280;34475;51.658;5.634;2022-07-03T00:06:00;101440;;;20.4;100.0
48680;BME280;34475;51.658;5.634;2022-07-03T00:07:00;101430;;;20.3;100.0
48680;BME280;34475;51.658;5.634;2022-07-03T00:08:00;101430;;;20.3;100.0
48680;BME280;34475;51.658;5.634;2022-07-03T00:09:00;101440;;;20.3;100.0
48680;BME280;34475;51.658;5.634;2022-07-03T00:10:00;101440;;;20.3;100.0
48680;BME280;34475;51.658;5.634;2022-07-03T00:11:00;101440;;;20.3;100.0
48680;BME280;34475;51.658;5.634;2022-07-03T00:12:00;101440;;;20.3;100.0
48680;BME280;34475;51.658;5.634;2022-07-03T00:13:00;101440;;;20.3;100.0
48680;BME280;34475;51.658;5.634;2022-07-03T00:14:00;101440;;;20.3;100.0
48680;BME280;34475;51.658;5.634;2022-07-03T00:15:00;101440;;;20.3;100.0
48680;BME280;34475;51.658;5.634;2022-07-03T00:16:00;101440;;;20.3;100.0
48680;BME280;34475;51.658;5.634;2022-07-03T00:17:00;101440;;;20.2;100.0
48680;BME280;34475;51.658;5.634;2022-07-03T00:18:00;101440;;;20.2;100.0
48680;BME280;34475;51.658;5.634;2022-07-03T00:19:00;101440;;;20.2;100.0
48680;BME280;34475;51.658;5.634;2022-07-03T00:20:00;101440;;;20.2;100.0
48680;BME280;34475;51.658;5.634;2022-07-03T00:21:01;101440;;;19.9;100.0
48680;BME280;34475;51.658;5.634;2022-07-03T00:22:02;101440;;;19.9;100.0
48680;BME280;34475;51.658;5.634;2022-07-03T00:23:00;101430;;;20.0;100.0
48680;BME280;34475;51.658;5.634;2022-07-03T00:24:01;101430;;;20.0;100.0
48680;BME280;34475;51.658;5.634;2022-07-03T00:25:01;101440;;;19.9;100.0
48680;BME280;34475;51.658;5.634;2022-07-03T00:26:00;101440;;;19.9;100.0
48680;BME280;34475;51.658;5.634;2022-07-03T00:27:00;101430;;;20.0;100.0
48680;BME280;34475;51.658;5.634;2022-07-03T00:28:00;101430;;;20.0;100.0
48680;BME280;34475;51.658;5.634;2022-07-03T00:29:00;101430;;;20.0;100.0
48680;BME280;34475;51.658;5.634;2022-07-03T00:30:00;101430;;;20.0;100.0
48680;BME280;34475;51.658;5.634;2022-07-03T00:31:00;101430;;;20.0;100.0
48680;BME280;34475;51.658;5.634;2022-07-03T00:32:00;101430;;;20.0;100.0
48680;BME280;34475;51.658;5.634;2022-07-03T00:33:01;101430;;;19.9;100.0
48680;BME280;34475;51.658;5.634;2022-07-03T00:34:00;101430;;;19.9;100.0
48680;BME280;34475;51.658;5.634;2022-07-03T00:35:00;101440;;;19.9;100.0
48680;BME280;34475;51.658;5.634;2022-07-03T00:36:00;101440;;;19.9;100.0
48680;BME280;34475;51.658;5.634;2022-07-03T00:37:00;101440;;;19.9;100.0
48680;BME280;34475;51.658;5.634;2022-07-03T00:38:00;101440;;;19.9;100.0
48680;BME280;34475;51.658;5.634;2022-07-03T00:39:00;101440;;;19.8;100.0
48680;BME280;34475;51.658;5.634;2022-07-03T00:40:00;101440;;;19.8;100.0
48680;BME280;34475;51.658;5.634;2022-07-03T00:41:01;101440;;;19.8;100.0
48680;BME280;34475;51.658;5.634;2022-07-03T00:42:00;101440;;;19.8;100.0
48680;BME280;34475;51.658;5.634;2022-07-03T00:43:00;101440;;;19.7;100.0
48680;BME280;34475;51.658;5.634;2022-07-03T00:44:00;101440;;;19.7;100.0
48680;BME280;34475;51.658;5.634;2022-07-03T00:45:00;101440;;;19.7;100.0
48680;BME280;34475;51.658;5.634;2022-07-03T00:46:07;101440;;;19.7;100.0
48680;BME280;34475;51.658;5.634;2022-07-03T00:47:00;101440;;;19.6;100.0
48680;BME280;34475;51.658;5.634;2022-07-03T00:48:00;101440;;;19.6;100.0
48680;BME280;34475;51.658;5.634;2022-07-03T00:49:00;101440;;;19.6;100.0
48680;BME280;34475;51.658;5.634;2022-07-03T00:50:00;101440;;;19.6;100.0
48680;BME280;34475;51.658;5.634;2022-07-03T00:51:00;101450;;;19.5;100.0
48680;BME280;34475;51.658;5.634;2022-07-03T00:52:00;101450;;;19.5;100.0
48680;BME280;34475;51.658;5.634;2022-07-03T00:53:01;101450;;;19.4;100.0
48680;BME280;34475;51.658;5.634;2022-07-03T00:54:00;101450;;;19.4;100.0
48680;BME280;34475;51.658;5.634;2022-07-03T00:55:00;101450;;;19.6;100.0
48680;BME280;34475;51.658;5.634;2022-07-03T00:56:00;101450;;;19.6;100.0
48680;BME280;34475;51.658;5.634;2022-07-03T00:57:00;101450;;;19.5;100.0
48680;BME280;34475;51.658;5.634;2022-07-03T00:58:00;101450;;;19.5;100.0
48680;BME280;34475;51.658;5.634;2022-07-03T00:59:00;101460;;;19.2;100.0
48680;BME280;34475;51.658;5.634;2022-07-03T01:00:00;101460;;;19.2;100.0
48680;BME280;34475;51.658;5.634;2022-07-03T01:01:00;101460;;;19.2;100.0
48680;BME280;34475;51.658;5.634;2022-07-03T01:02:03;101460;;;19.2;100.0
48680;BME280;34475;51.658;5.634;2022-07-03T01:03:02;101460;;;19.3;100.0
48680;BME280;34475;51.658;5.634;2022-07-03T01:06:02;101460;;;19.3;100.0
48680;BME280;34475;51.658;5.634;2022-07-03T01:07:00;101460;;;19.3;100.0
48680;BME280;34475;51.658;5.634;2022-07-03T01:09:01;101450;;;19.3;100.0
48680;BME280;34475;51.658;5.634;2022-07-03T01:12:06;101450;;;19.2;100.0
48680;BME280;34475;51.658;5.634;2022-07-03T01:13:11;101460;;;19.1;100.0
48680;BME280;34475;51.658;5.634;2022-07-03T01:16:13;101460;;;19.2;100.0
48680;BME280;34475;51.658;5.634;2022-07-03T01:18:31;101460;;;19.0;100.0
48680;BME280;34475;51.658;5.634;2022-07-03T01:20:02;101460;;;19.0;100.0
48680;BME280;34475;51.658;5.634;2022-07-03T01:21:04;101460;;;19.1;100.0
48680;BME280;34475;51.658;5.634;2022-07-03T01:23:00;101450;;;19.1;100.0
48680;BME280;34475;51.658;5.634;2022-07-03T01:26:00;101460;;;19.0;100.0
48680;BME280;34475;51.658;5.634;2022-07-03T01:27:03;101450;;;18.9;100.0
48680;BME280;34475;51.658;5.634;2022-07-03T01:29:02;101460;;;18.9;100.0
48680;BME280;34475;51.658;5.634;2022-07-03T01:30:08;101460;;;18.9;100.0
48680;BME280;34475;51.658;5.634;2022-07-03T01:31:01;101460;;;18.8;100.0
48680;BME280;34475;51.658;5.634;2022-07-03T01:32:00;101460;;;18.8;100.0
48680;BME280;34475;51.658;5.634;2022-07-03T01:33:02;101460;;;18.9;100.0
48680;BME280;34475;51.658;5.634;2022-07-03T01:34:00;101460;;;18.9;100.0
48680;BME280;34475;51.658;5.634;2022-07-03T01:35:00;101470;;;18.8;100.0
48680;BME280;34475;51.658;5.634;2022-07-03T01:37:00;101470;;;18.8;100.0
48680;BME280;34475;51.658;5.634;2022-07-03T01:38:02;101470;;;18.8;100.0
48680;BME280;34475;51.658;5.634;2022-07-03T01:39:00;101470;;;18.6;100.0
48680;BME280;34475;51.658;5.634;2022-07-03T01:40:00;101470;;;18.6;100.0
48680;BME280;34475;51.658;5.634;2022-07-03T01:41:00;101470;;;18.7;100.0
48680;BME280;34475;51.658;5.634;2022-07-03T01:42:00;101470;;;18.7;100.0
48680;BME280;34475;51.658;5.634;2022-07-03T01:43:02;101460;;;18.8;100.0
48680;BME280;34475;51.658;5.634;2022-07-03T01:44:00;101460;;;18.8;100.0
48680;BME280;34475;51.658;5.634;2022-07-03T01:45:00;101460;;;18.7;100.0
48680;BME280;34475;51.658;5.634;2022-07-03T01:46:00;101460;;;18.7;100.0
48680;BME280;34475;51.658;5.634;2022-07-03T01:47:00;101470;;;18.7;100.0
48680;BME280;34475;51.658;5.634;2022-07-03T01:48:00;101470;;;18.7;100.0
48680;BME280;34475;51.658;5.634;2022-07-03T01:49:00;101460;;;18.7;100.0
48680;BME280;34475;51.658;5.634;2022-07-03T01:50:00;101460;;;18.7;100.0
48680;BME280;34475;51.658;5.634;2022-07-03T01:51:00;101470;;;18.7;100.0
48680;BME280;34475;51.658;5.634;2022-07-03T01:52:00;101470;;;18.7;100.0
48680;BME280;34475;51.658;5.634;2022-07-03T01:53:00;101460;;;18.8;100.0
48680;BME280;34475;51.658;5.634;2022-07-03T01:54:00;101460;;;18.8;100.0
48680;BME280;34475;51.658;5.634;2022-07-03T01:55:00;101460;;;18.6;100.0
48680;BME280;34475;51.658;5.634;2022-07-03T01:56:00;101460;;;18.6;100.0
48680;BME280;34475;51.658;5.634;2022-07-03T01:57:00;101460;;;18.6;100.0
48680;BME280;34475;51.658;5.634;2022-07-03T01:58:00;101460;;;18.6;100.0
48680;BME280;34475;51.658;5.634;2022-07-03T01:59:00;101460;;;18.6;100.0
48680;BME280;34475;51.658;5.634;2022-07-03T02:00:00;101460;;;18.6;100.0
48680;BME280;34475;51.658;5.634;2022-07-03T02:03:01;101460;;;18.5;100.0
48680;BME280;34475;51.658;5.634;2022-07-03T02:04:04;101460;;;18.5;100.0
48680;BME280;34475;51.658;5.634;2022-07-03T02:05:02;101460;;;18.6;100.0
48680;BME280;34475;51.658;5.634;2022-07-03T02:06:09;101460;;;18.6;100.0
48680;BME280;34475;51.658;5.634;2022-07-03T02:07:02;101460;;;18.5;100.0
48680;BME280;34475;51.658;5.634;2022-07-03T02:09:02;101460;;;18.5;100.0
48680;BME280;34475;51.658;5.634;2022-07-03T02:10:08;101460;;;18.5;100.0
48680;BME280;34475;51.658;5.634;2022-07-03T02:11:08;101460;;;18.5;100.0
48680;BME280;34475;51.658;5.634;2022-07-03T02:12:00;101460;;;18.5;100.0
48680;BME280;34475;51.658;5.634;2022-07-03T02:13:01;101460;;;18.5;100.0
48680;BME280;34475;51.658;5.634;2022-07-03T02:15:03;101450;;;18.5;100.0
48680;BME280;34475;51.658;5.634;2022-07-03T02:16:00;101450;;;18.5;100.0
48680;BME280;34475;51.658;5.634;2022-07-03T02:17:10;101450;;;18.5;100.0
48680;BME280;34475;51.658;5.634;2022-07-03T02:18:03;101450;;;18.5;100.0
48680;BME280;34475;51.658;5.634;2022-07-03T02:19:04;101450;;;18.5;100.0
48680;BME280;34475;51.658;5.634;2022-07-03T02:20:00;101450;;;18.5;100.0
48680;BME280;34475;51.658;5.634;2022-07-03T02:21:10;101450;;;18.5;100.0
48680;BME280;34475;51.658;5.634;2022-07-03T02:22:00;101450;;;18.5;100.0
48680;BME280;34475;51.658;5.634;2022-07-03T02:23:00;101450;;;18.5;100.0
48680;BME280;34475;51.658;5.634;2022-07-03T02:24:05;101450;;;18.5;100.0
48680;BME280;34475;51.658;5.634;2022-07-03T02:25:04;101450;;;18.4;100.0
48680;BME280;34475;51.658;5.634;2022-07-03T02:26:00;101450;;;18.4;100.0
48680;BME280;34475;51.658;5.634;2022-07-03T02:27:01;101450;;;18.4;100.0
48680;BME280;34475;51.658;5.634;2022-07-03T02:29:02;101450;;;18.4;100.0
48680;BME280;34475;51.658;5.634;2022-07-03T02:30:03;101450;;;18.4;100.0
48680;BME280;34475;51.658;5.634;2022-07-03T02:31:01;101450;;;18.3;100.0
48680;BME280;34475;51.658;5.634;2022-07-03T02:32:02;101450;;;18.3;100.0
48680;BME280;34475;51.658;5.634;2022-07-03T02:33:01;101450;;;18.3;100.0
48680;BME280;34475;51.658;5.634;2022-07-03T02:34:00;101450;;;18.3;100.0
48680;BME280;34475;51.658;5.634;2022-07-03T02:35:00;101450;;;18.4;100.0
48680;BME280;34475;51.658;5.634;2022-07-03T02:36:00;101450;;;18.4;100.0
48680;BME280;34475;51.658;5.634;2022-07-03T02:37:05;101450;;;18.3;100.0
48680;BME280;34475;51.658;5.634;2022-07-03T02:39:00;101440;;;18.3;100.0
48680;BME280;34475;51.658;5.634;2022-07-03T02:41:02;101450;;;18.3;100.0
48680;BME280;34475;51.658;5.634;2022-07-03T02:42:00;101450;;;18.3;100.0
48680;BME280;34475;51.658;5.634;2022-07-03T02:44:02;101450;;;18.3;100.0
48680;BME280;34475;51.658;5.634;2022-07-03T02:45:01;101450;;;18.2;100.0
48680;BME280;34475;51.658;5.634;2022-07-03T02:46:02;101450;;;18.2;100.0
48680;BME280;34475;51.658;5.634;2022-07-03T02:47:00;101450;;;18.2;100.0
48680;BME280;34475;51.658;5.634;2022-07-03T02:48:04;101450;;;18.2;100.0
48680;BME280;34475;51.658;5.634;2022-07-03T02:49:02;101450;;;18.2;100.0
48680;BME280;34475;51.658;5.634;2022-07-03T02:50:04;101450;;;18.2;100.0
48680;BME280;34475;51.658;5.634;2022-07-03T02:51:04;101450;;;18.1;100.0
48680;BME280;34475;51.658;5.634;2022-07-03T02:53:03;101450;;;18.1;100.0
48680;BME280;34475;51.658;5.634;2022-07-03T02:54:09;101450;;;18.1;100.0
48680;BME280;34475;51.658;5.634;2022-07-03T02:55:02;101450;;;18.0;100.0
48680;BME280;34475;51.658;5.634;2022-07-03T02:56:05;101450;;;18.0;100.0
48680;BME280;34475;51.658;5.634;2022-07-03T02:57:04;101440;;;18.1;100.0
48680;BME280;34475;51.658;5.634;2022-07-03T03:00:01;101450;;;18.0;100.0
48680;BME280;34475;51.658;5.634;2022-07-03T03:01:06;101450;;;18.0;100.0
48680;BME280;34475;51.658;5.634;2022-07-03T03:02:03;101450;;;18.0;100.0
48680;BME280;34475;51.658;5.634;2022-07-03T03:03:00;101450;;;18.0;100.0
48680;BME280;34475;51.658;5.634;2022-07-03T03:06:02;101450;;;18.0;100.0
48680;BME280;34475;51.658;5.634;2022-07-03T03:07:01;101460;;;18.0;100.0
48680;BME280;34475;51.658;5.634;2022-07-03T03:09:01;101460;;;18.0;100.0
48680;BME280;34475;51.658;5.634;2022-07-03T03:10:00;101460;;;18.0;100.0
48680;BME280;34475;51.658;5.634;2022-07-03T03:11:09;101460;;;17.9;100.0
48680;BME280;34475;51.658;5.634;2022-07-03T03:12:01;101460;;;17.9;100.0
48680;BME280;34475;51.658;5.634;2022-07-03T03:13:03;101460;;;17.9;100.0
48680;BME280;34475;51.658;5.634;2022-07-03T03:14:00;101460;;;17.9;100.0
48680;BME280;34475;51.658;5.634;2022-07-03T03:15:00;101460;;;17.9;100.0
48680;BME280;34475;51.658;5.634;2022-07-03T03:16:04;101460;;;17.9;100.0
48680;BME280;34475;51.658;5.634;2022-07-03T03:17:00;101460;;;17.8;100.0
48680;BME280;34475;51.658;5.634;2022-07-03T03:18:04;101460;;;17.8;100.0
48680;BME280;34475;51.658;5.634;2022-07-03T03:19:00;101460;;;17.8;100.0
48680;BME280;34475;51.658;5.634;2022-07-03T03:20:00;101460;;;17.8;100.0
48680;BME280;34475;51.658;5.634;2022-07-03T03:21:00;101460;;;17.7;100.0
48680;BME280;34475;51.658;5.634;2022-07-03T03:22:06;101460;;;17.7;100.0
48680;BME280;34475;51.658;5.634;2022-07-03T03:23:17;101460;;;17.7;100.0
48680;BME280;34475;51.658;5.634;2022-07-03T03:24:00;101460;;;17.7;100.0
48680;BME280;34475;51.658;5.634;2022-07-03T03:25:02;101460;;;17.7;100.0
48680;BME280;34475;51.658;5.634;2022-07-03T03:26:00;101460;;;17.7;100.0
48680;BME280;34475;51.658;5.634;2022-07-03T03:27:00;101450;;;17.7;100.0
48680;BME280;34475;51.658;5.634;2022-07-03T03:28:00;101450;;;17.7;100.0
48680;BME280;34475;51.658;5.634;2022-07-03T03:29:00;101460;;;17.8;100.0
48680;BME280;34475;51.658;5.634;2022-07-03T03:30:00;101460;;;17.8;100.0
48680;BME280;34475;51.658;5.634;2022-07-03T03:31:00;101460;;;17.6;100.0
48680;BME280;34475;51.658;5.634;2022-07-03T03:32:00;101460;;;17.6;100.0
48680;BME280;34475;51.658;5.634;2022-07-03T03:33:00;101460;;;17.7;100.0
48680;BME280;34475;51.658;5.634;2022-07-03T03:34:00;101460;;;17.7;100.0
48680;BME280;34475;51.658;5.634;2022-07-03T03:35:00;101460;;;17.7;100.0
48680;BME280;34475;51.658;5.634;2022-07-03T03:36:00;101460;;;17.7;100.0
48680;BME280;34475;51.658;5.634;2022-07-03T03:37:00;101460;;;17.7;100.0
48680;BME280;34475;51.658;5.634;2022-07-03T03:38:00;101460;;;17.7;100.0
48680;BME280;34475;51.658;5.634;2022-07-03T03:39:00;101460;;;17.7;100.0
48680;BME280;34475;51.658;5.634;2022-07-03T03:40:01;101460;;;17.7;100.0
48680;BME280;34475;51.658;5.634;2022-07-03T03:41:00;101470;;;17.6;100.0
48680;BME280;34475;51.658;5.634;2022-07-03T03:42:00;101470;;;17.6;100.0
48680;BME280;34475;51.658;5.634;2022-07-03T03:43:00;101470;;;17.6;100.0
48680;BME280;34475;51.658;5.634;2022-07-03T03:44:00;101470;;;17.6;100.0
48680;BME280;34475;51.658;5.634;2022-07-03T03:45:00;101470;;;17.7;100.0
48680;BME280;34475;51.658;5.634;2022-07-03T03:46:00;101470;;;17.7;100.0
48680;BME280;34475;51.658;5.634;2022-07-03T03:47:00;101470;;;17.7;100.0
48680;BME280;34475;51.658;5.634;2022-07-03T03:48:00;101470;;;17.7;100.0
48680;BME280;34475;51.658;5.634;2022-07-03T03:49:00;101470;;;17.7;100.0
48680;BME280;34475;51.658;5.634;2022-07-03T03:50:00;101470;;;17.7;100.0
48680;BME280;34475;51.658;5.634;2022-07-03T03:51:00;101470;;;17.7;100.0
48680;BME280;34475;51.658;5.634;2022-07-03T03:52:00;101470;;;17.7;100.0
48680;BME280;34475;51.658;5.634;2022-07-03T03:53:00;101470;;;17.7;100.0
48680;BME280;34475;51.658;5.634;2022-07-03T03:54:00;101470;;;17.7;100.0
48680;BME280;34475;51.658;5.634;2022-07-03T03:55:00;101470;;;17.7;100.0
48680;BME280;34475;51.658;5.634;2022-07-03T03:57:19;101470;;;17.6;100.0
48680;BME280;34475;51.658;5.634;2022-07-03T03:58:00;101470;;;17.6;100.0
48680;BME280;34475;51.658;5.634;2022-07-03T03:59:00;101470;;;17.7;100.0
48680;BME280;34475;51.658;5.634;2022-07-03T04:00:00;101470;;;17.7;100.0
48680;BME280;34475;51.658;5.634;2022-07-03T04:01:00;101470;;;17.6;100.0
48680;BME280;34475;51.658;5.634;2022-07-03T04:02:00;101470;;;17.6;100.0
48680;BME280;34475;51.658;5.634;2022-07-03T04:03:00;101470;;;17.6;100.0
48680;BME280;34475;51.658;5.634;2022-07-03T04:04:00;101470;;;17.6;100.0
48680;BME280;34475;51.658;5.634;2022-07-03T04:05:00;101470;;;17.6;100.0
48680;BME280;34475;51.658;5.634;2022-07-03T04:06:00;101470;;;17.6;100.0
48680;BME280;34475;51.658;5.634;2022-07-03T04:07:00;101470;;;17.6;100.0
48680;BME280;34475;51.658;5.634;2022-07-03T04:08:00;101470;;;17.6;100.0
48680;BME280;34475;51.658;5.634;2022-07-03T04:09:00;101470;;;17.7;100.0
48680;BME280;34475;51.658;5.634;2022-07-03T04:10:00;101470;;;17.7;100.0
48680;BME280;34475;51.658;5.634;2022-07-03T04:11:00;101470;;;17.7;100.0
48680;BME280;34475;51.658;5.634;2022-07-03T04:12:00;101470;;;17.7;100.0
48680;BME280;34475;51.658;5.634;2022-07-03T04:13:00;101470;;;17.7;100.0
48680;BME280;34475;51.658;5.634;2022-07-03T04:14:00;101470;;;17.7;100.0
48680;BME280;34475;51.658;5.634;2022-07-03T04:15:00;101460;;;17.8;100.0
48680;BME280;34475;51.658;5.634;2022-07-03T04:16:00;101460;;;17.8;100.0
48680;BME280;34475;51.658;5.634;2022-07-03T04:17:00;101470;;;17.7;100.0
48680;BME280;34475;51.658;5.634;2022-07-03T04:18:00;101470;;;17.7;100.0
48680;BME280;34475;51.658;5.634;2022-07-03T04:19:00;101460;;;17.6;100.0
48680;BME280;34475;51.658;5.634;2022-07-03T04:20:00;101460;;;17.6;100.0
48680;BME280;34475;51.658;5.634;2022-07-03T04:21:00;101460;;;17.7;100.0
48680;BME280;34475;51.658;5.634;2022-07-03T04:22:00;101460;;;17.7;100.0
48680;BME280;34475;51.658;5.634;2022-07-03T04:23:00;101470;;;17.7;100.0
48680;BME280;34475;51.658;5.634;2022-07-03T04:24:00;101470;;;17.7;100.0
48680;BME280;34475;51.658;5.634;2022-07-03T04:25:00;101460;;;17.6;100.0
48680;BME280;34475;51.658;5.634;2022-07-03T04:26:04;101460;;;17.6;100.0
48680;BME280;34475;51.658;5.634;2022-07-03T04:27:00;101460;;;17.7;100.0
48680;BME280;34475;51.658;5.634;2022-07-03T04:28:00;101460;;;17.7;100.0
48680;BME280;34475;51.658;5.634;2022-07-03T04:29:00;101460;;;17.6;100.0
48680;BME280;34475;51.658;5.634;2022-07-03T04:30:00;101460;;;17.6;100.0
48680;BME280;34475;51.658;5.634;2022-07-03T04:31:00;101460;;;17.7;100.0
48680;BME280;34475;51.658;5.634;2022-07-03T04:32:00;101460;;;17.7;100.0
48680;BME280;34475;51.658;5.634;2022-07-03T04:33:00;101470;;;17.6;100.0
48680;BME280;34475;51.658;5.634;2022-07-03T04:34:00;101470;;;17.6;100.0
48680;BME280;34475;51.658;5.634;2022-07-03T04:35:00;101470;;;17.7;100.0
48680;BME280;34475;51.658;5.634;2022-07-03T04:36:00;101470;;;17.7;100.0
48680;BME280;34475;51.658;5.634;2022-07-03T04:37:00;101470;;;17.6;100.0
48680;BME280;34475;51.658;5.634;2022-07-03T04:38:00;101470;;;17.6;100.0
48680;BME280;34475;51.658;5.634;2022-07-03T04:39:00;101470;;;17.6;100.0
48680;BME280;34475;51.658;5.634;2022-07-03T04:40:00;101470;;;17.6;100.0
48680;BME280;34475;51.658;5.634;2022-07-03T04:41:00;101470;;;17.6;100.0
48680;BME280;34475;51.658;5.634;2022-07-03T04:42:00;101470;;;17.6;100.0
48680;BME280;34475;51.658;5.634;2022-07-03T04:43:00;101480;;;17.6;100.0
48680;BME280;34475;51.658;5.634;2022-07-03T04:44:00;101480;;;17.6;100.0
48680;BME280;34475;51.658;5.634;2022-07-03T04:45:00;101480;;;17.6;100.0
48680;BME280;34475;51.658;5.634;2022-07-03T04:46:00;101480;;;17.6;100.0
48680;BME280;34475;51.658;5.634;2022-07-03T04:47:00;101480;;;17.6;100.0
48680;BME280;34475;51.658;5.634;2022-07-03T04:48:00;101480;;;17.6;100.0
48680;BME280;34475;51.658;5.634;2022-07-03T04:49:00;101480;;;17.6;100.0
48680;BME280;34475;51.658;5.634;2022-07-03T04:50:00;101480;;;17.6;100.0
48680;BME280;34475;51.658;5.634;2022-07-03T04:51:00;101480;;;17.6;100.0
48680;BME280;34475;51.658;5.634;2022-07-03T04:52:00;101480;;;17.6;100.0
48680;BME280;34475;51.658;5.634;2022-07-03T04:53:00;101480;;;17.6;100.0
48680;BME280;34475;51.658;5.634;2022-07-03T04:54:00;101480;;;17.6;100.0
48680;BME280;34475;51.658;5.634;2022-07-03T04:55:00;101480;;;17.7;100.0
48680;BME280;34475;51.658;5.634;2022-07-03T04:56:00;101480;;;17.7;100.0
48680;BME280;34475;51.658;5.634;2022-07-03T04:57:00;101480;;;17.6;100.0
48680;BME280;34475;51.658;5.634;2022-07-03T04:58:00;101480;;;17.6;100.0
48680;BME280;34475;51.658;5.634;2022-07-03T04:59:00;101480;;;17.6;100.0
48680;BME280;34475;51.658;5.634;2022-07-03T05:00:00;101480;;;17.6;100.0
48680;BME280;34475;51.658;5.634;2022-07-03T05:01:00;101480;;;17.7;100.0
48680;BME280;34475;51.658;5.634;2022-07-03T05:02:00;101480;;;17.7;100.0
48680;BME280;34475;51.658;5.634;2022-07-03T05:03:00;101490;;;17.8;100.0
48680;BME280;34475;51.658;5.634;2022-07-03T05:04:00;101490;;;17.8;100.0
48680;BME280;34475;51.658;5.634;2022-07-03T05:05:00;101480;;;17.9;100.0
48680;BME280;34475;51.658;5.634;2022-07-03T05:06:00;101480;;;17.9;100.0
48680;BME280;34475;51.658;5.634;2022-07-03T05:07:00;101480;;;18.0;100.0
48680;BME280;34475;51.658;5.634;2022-07-03T05:08:00;101480;;;18.0;100.0
48680;BME280;34475;51.658;5.634;2022-07-03T05:09:00;101490;;;18.2;100.0
48680;BME280;34475;51.658;5.634;2022-07-03T05:10:00;101490;;;18.2;100.0
48680;BME280;34475;51.658;5.634;2022-07-03T05:11:00;101490;;;18.2;100.0
48680;BME280;34475;51.658;5.634;2022-07-03T05:12:00;101490;;;18.2;100.0
48680;BME280;34475;51.658;5.634;2022-07-03T05:13:00;101490;;;18.3;100.0
48680;BME280;34475;51.658;5.634;2022-07-03T05:14:00;101490;;;18.3;100.0
48680;BME280;34475;51.658;5.634;2022-07-03T05:15:00;101490;;;18.3;100.0
48680;BME280;34475;51.658;5.634;2022-07-03T05:16:00;101490;;;18.3;100.0
48680;BME280;34475;51.658;5.634;2022-07-03T05:17:00;101490;;;18.2;100.0
48680;BME280;34475;51.658;5.634;2022-07-03T05:18:00;101490;;;18.2;100.0
48680;BME280;34475;51.658;5.634;2022-07-03T05:19:00;101490;;;18.4;100.0
48680;BME280;34475;51.658;5.634;2022-07-03T05:20:00;101490;;;18.4;100.0
48680;BME280;34475;51.658;5.634;2022-07-03T05:21:00;101490;;;18.4;100.0
48680;BME280;34475;51.658;5.634;2022-07-03T05:22:00;101490;;;18.4;100.0
48680;BME280;34475;51.658;5.634;2022-07-03T05:23:00;101490;;;18.4;100.0
48680;BME280;34475;51.658;5.634;2022-07-03T05:24:00;101490;;;18.4;100.0
48680;BME280;34475;51.658;5.634;2022-07-03T05:25:00;101490;;;18.3;100.0
48680;BME280;34475;51.658;5.634;2022-07-03T05:26:00;101490;;;18.3;100.0
48680;BME280;34475;51.658;5.634;2022-07-03T05:27:00;101490;;;18.3;100.0
48680;BME280;34475;51.658;5.634;2022-07-03T05:28:00;101490;;;18.3;100.0
48680;BME280;34475;51.658;5.634;2022-07-03T05:29:00;101500;;;18.4;100.0
48680;BME280;34475;51.658;5.634;2022-07-03T05:30:00;101500;;;18.4;100.0
48680;BME280;34475;51.658;5.634;2022-07-03T05:31:00;101500;;;18.3;100.0
48680;BME280;34475;51.658;5.634;2022-07-03T05:32:00;101500;;;18.3;100.0
48680;BME280;34475;51.658;5.634;2022-07-03T05:33:00;101500;;;18.4;100.0
48680;BME280;34475;51.658;5.634;2022-07-03T05:34:00;101500;;;18.4;100.0
48680;BME280;34475;51.658;5.634;2022-07-03T05:35:00;101500;;;18.4;100.0
48680;BME280;34475;51.658;5.634;2022-07-03T05:36:00;101500;;;18.4;100.0
48680;BME280;34475;51.658;5.634;2022-07-03T05:37:00;101500;;;18.4;100.0
48680;BME280;34475;51.658;5.634;2022-07-03T05:38:00;101500;;;18.4;100.0
48680;BME280;34475;51.658;5.634;2022-07-03T05:39:00;101500;;;18.4;100.0
48680;BME280;34475;51.658;5.634;2022-07-03T05:40:00;101500;;;18.4;100.0
48680;BME280;34475;51.658;5.634;2022-07-03T05:41:00;101500;;;18.4;100.0
48680;BME280;34475;51.658;5.634;2022-07-03T05:42:00;101500;;;18.4;100.0
48680;BME280;34475;51.658;5.634;2022-07-03T05:43:00;101500;;;18.5;100.0
48680;BME280;34475;51.658;5.634;2022-07-03T05:44:00;101500;;;18.5;100.0
48680;BME280;34475;51.658;5.634;2022-07-03T05:45:00;101500;;;18.5;100.0
48680;BME280;34475;51.658;5.634;2022-07-03T05:46:00;101500;;;18.5;100.0
48680;BME280;34475;51.658;5.634;2022-07-03T05:47:00;101500;;;18.5;100.0
48680;BME280;34475;51.658;5.634;2022-07-03T05:48:00;101500;;;18.5;100.0
48680;BME280;34475;51.658;5.634;2022-07-03T05:49:00;101500;;;18.5;100.0
48680;BME280;34475;51.658;5.634;2022-07-03T05:50:00;101500;;;18.5;100.0
48680;BME280;34475;51.658;5.634;2022-07-03T05:51:00;101500;;;18.4;100.0
48680;BME280;34475;51.658;5.634;2022-07-03T05:52:00;101500;;;18.4;100.0
48680;BME280;34475;51.658;5.634;2022-07-03T05:53:00;101500;;;18.4;100.0
48680;BME280;34475;51.658;5.634;2022-07-03T05:54:00;101500;;;18.4;100.0
48680;BME280;34475;51.658;5.634;2022-07-03T05:55:00;101500;;;18.5;100.0
48680;BME280;34475;51.658;5.634;2022-07-03T05:56:00;101500;;;18.5;100.0
48680;BME280;34475;51.658;5.634;2022-07-03T05:57:00;101500;;;18.5;100.0
48680;BME280;34475;51.658;5.634;2022-07-03T05:58:00;101500;;;18.5;100.0
48680;BME280;34475;51.658;5.634;2022-07-03T05:59:00;101510;;;18.5;100.0